Almira, Washington
Current Conditions -  °F | °C
As of 8:53 AM on Thursday 30 Oct 2014 (Local Time) from KEPH Reporting Station
Light Rain Light Rain  
Wind Chill: 51°   Ceiling: 7500
Heat Index: 51°   Visibility: 10mi
Dew Point: 47°   Wind: 8mph
Humidity: 86%   Direction: 10°N
Pressure: 30.06"   Gusts: NA
Location:  47.71°N, 118.94°W
Report Text: KEPH 301553Z AUTO 01007KT 10SM -RA SCT050 OVC075 11/08 A3006 RMK AO2 RAB03E12B37 SLP184 P0000 T01060083
Loading
Personal Weather Stations






























Interactive Weather Map New forecast layout! Learn more

10-Day Weather Forecast

Advertisements
Track Severe Weather on mobile